Time;durP1;ratioP1;P1;durP2;ratioP2;P2;SDS_P1;SDS_P2;PMS_P1;PMS_P2;Temp;Humidity;BMP_temperature;BMP_pressure;BME280_temperature;BME280_humidity;BME280_pressure;Samples;Min_cycle;Max_cycle;Signal;HPM_P1;HPM_P2
2023/06/08 00:02:17;;;;;;;5.83;5.30;;;19.00;1.00;;;;;;5140641;27;20207;-48
2023/06/08 00:04:44;;;;;;;5.83;5.33;;;19.00;1.00;;;;;;5139894;27;20517;-50
2023/06/08 00:07:14;;;;;;;6.03;5.30;;;18.90;1.00;;;;;;5139329;27;20478;-47
2023/06/08 00:09:43;;;;;;;6.17;5.57;;;18.90;1.00;;;;;;5139740;27;20496;-49
2023/06/08 00:12:10;;;;;;;6.90;6.30;;;18.90;1.00;;;;;;5139606;27;20487;-48
2023/06/08 00:14:36;;;;;;;5.30;4.90;;;18.80;1.00;;;;;;5130260;27;20417;-48
2023/06/08 00:17:03;;;;;;;6.47;5.87;;;18.80;1.00;;;;;;5119479;28;20479;-48
2023/06/08 00:19:30;;;;;;;5.97;5.57;;;18.70;1.00;;;;;;5118557;28;20409;-48
2023/06/08 00:21:56;;;;;;;6.10;5.60;;;18.70;1.00;;;;;;5118217;28;20474;-50
2023/06/08 00:24:22;;;;;;;6.30;5.70;;;18.60;1.00;;;;;;5119287;28;20428;-48
2023/06/08 00:26:48;;;;;;;6.33;5.73;;;18.60;1.00;;;;;;5119389;28;20426;-47
2023/06/08 00:29:14;;;;;;;6.20;5.70;;;18.50;1.00;;;;;;5119986;28;20421;-49
2023/06/08 00:31:40;;;;;;;6.93;6.33;;;18.50;1.00;;;;;;5119579;28;20223;-47
2023/06/08 00:34:05;;;;;;;6.33;5.83;;;18.50;1.00;;;;;;5120388;28;20218;-47
2023/06/08 00:36:31;;;;;;;6.23;5.70;;;18.50;1.00;;;;;;5119613;28;20933;-47
2023/06/08 00:38:57;;;;;;;5.87;5.37;;;18.50;1.00;;;;;;5119953;28;20424;-50
2023/06/08 00:41:23;;;;;;;6.60;6.00;;;18.50;1.00;;;;;;5119515;28;20270;-49
2023/06/08 00:43:49;;;;;;;5.87;5.37;;;18.60;1.00;;;;;;5118458;28;20341;-46
2023/06/08 00:46:16;;;;;;;7.60;6.90;;;18.60;1.00;;;;;;5119060;28;20926;-48
2023/06/08 00:48:42;;;;;;;6.53;6.03;;;18.50;1.00;;;;;;5100998;28;20187;-45
2023/06/08 00:51:08;;;;;;;6.70;6.10;;;18.50;1.00;;;;;;5119173;28;20502;-48
2023/06/08 00:53:36;;;;;;;6.80;6.20;;;18.50;1.00;;;;;;5118406;28;20188;-46
2023/06/08 00:56:02;;;;;;;6.20;5.70;;;18.50;1.00;;;;;;5119058;28;20769;-46
2023/06/08 00:58:28;;;;;;;6.83;6.30;;;18.50;1.00;;;;;;5101447;28;20401;-47
2023/06/08 01:00:59;;;;;;;6.00;5.50;;;18.50;1.00;;;;;;5119982;28;20409;-50
2023/06/08 01:03:38;;;;;;;6.20;5.63;;;18.50;1.00;;;;;;5102134;28;20456;-49
2023/06/08 01:06:16;;;;;;;6.93;6.07;;;18.50;1.00;;;;;;5116988;28;20422;-50
2023/06/08 01:08:42;;;;;;;6.67;6.07;;;18.50;1.00;;;;;;5118820;28;20521;-47
2023/06/08 01:11:23;;;;;;;6.23;5.63;;;18.50;1.00;;;;;;5118279;28;20508;-46
2023/06/08 01:13:57;;;;;;;5.90;5.30;;;18.50;1.00;;;;;;5119158;28;20719;-47
2023/06/08 01:16:28;;;;;;;6.90;6.07;;;18.50;1.00;;;;;;5100735;27;20521;-49
2023/06/08 01:18:59;;;;;;;7.03;6.43;;;18.50;1.00;;;;;;5100127;28;20847;-48
2023/06/08 01:21:43;;;;;;;7.13;6.43;;;18.40;1.00;;;;;;5117364;28;20460;-47
2023/06/08 01:24:36;;;;;;;6.10;5.60;;;18.40;1.00;;;;;;5099637;28;20458;-48
2023/06/08 01:27:06;;;;;;;6.50;5.70;;;18.40;1.00;;;;;;5112298;28;20444;-48
2023/06/08 01:29:33;;;;;;;5.93;5.43;;;18.30;1.00;;;;;;5117259;28;20828;-48
2023/06/08 01:31:59;;;;;;;5.67;5.10;;;18.30;1.00;;;;;;5117278;28;20954;-48
2023/06/08 01:34:25;;;;;;;6.10;5.60;;;18.30;1.00;;;;;;5117713;28;20410;-47
2023/06/08 01:37:02;;;;;;;6.57;6.07;;;18.30;1.00;;;;;;5099670;28;20416;-50
2023/06/08 01:39:34;;;;;;;5.73;5.33;;;18.30;1.00;;;;;;5117728;28;20433;-48
2023/06/08 01:42:02;;;;;;;6.13;5.53;;;18.20;1.00;;;;;;5117128;28;20498;-50
2023/06/08 01:44:29;;;;;;;5.90;5.20;;;18.20;1.00;;;;;;5116792;28;20452;-48
2023/06/08 01:46:57;;;;;;;6.07;5.50;;;18.20;12.50;;;;;;5099660;28;20524;-48
2023/06/08 01:49:28;;;;;;;5.73;5.23;;;18.20;10.50;;;;;;5100172;28;20414;-51
2023/06/08 01:51:54;;;;;;;5.30;4.90;;;18.20;17.80;;;;;;5117940;28;20874;-49
2023/06/08 01:54:22;;;;;;;6.80;5.90;;;18.10;26.60;;;;;;5116949;28;20432;-51
2023/06/08 01:56:47;;;;;;;5.50;5.10;;;18.10;28.30;;;;;;5117539;28;20429;-47
2023/06/08 01:59:13;;;;;;;5.50;5.00;;;18.10;43.40;;;;;;5118827;28;20757;-48
2023/06/08 02:01:38;;;;;;;5.50;5.10;;;18.10;55.30;;;;;;5118118;28;20199;-48
2023/06/08 02:04:04;;;;;;;7.90;5.83;;;18.00;50.10;;;;;;5118066;28;20176;-47
2023/06/08 02:06:30;;;;;;;6.10;5.60;;;18.00;56.40;;;;;;5116873;28;20192;-48
2023/06/08 02:08:56;;;;;;;5.90;5.50;;;17.90;50.30;;;;;;5116459;28;20200;-46
2023/06/08 02:11:22;;;;;;;8.00;6.20;;;17.80;85.60;;;;;;5116433;28;20519;-48
2023/06/08 02:13:48;;;;;;;6.27;5.67;;;17.70;99.90;;;;;;5117085;28;20831;-48
2023/06/08 02:16:14;;;;;;;6.80;5.73;;;17.60;99.90;;;;;;5117217;28;21090;-47
2023/06/08 02:18:42;;;;;;;6.20;5.60;;;17.40;99.90;;;;;;5117497;28;20433;-47
2023/06/08 02:21:09;;;;;;;6.57;5.97;;;17.40;99.90;;;;;;5117768;28;20191;-48
2023/06/08 02:23:34;;;;;;;6.10;5.60;;;17.40;99.90;;;;;;5117417;28;20460;-48
2023/06/08 02:26:00;;;;;;;6.20;5.70;;;17.40;99.90;;;;;;5117072;28;20864;-49
2023/06/08 02:28:26;;;;;;;6.23;5.73;;;17.40;99.90;;;;;;5117715;28;20266;-48
2023/06/08 02:30:51;;;;;;;6.23;5.73;;;17.40;99.90;;;;;;5118016;28;20184;-50
2023/06/08 02:33:17;;;;;;;6.00;5.40;;;17.40;99.90;;;;;;5117347;28;20481;-48
2023/06/08 02:35:43;;;;;;;6.60;5.40;;;17.40;99.90;;;;;;5116581;28;20484;-49
2023/06/08 02:38:08;;;;;;;6.37;5.77;;;17.50;99.90;;;;;;5116725;28;20194;-50
2023/06/08 02:40:35;;;;;;;7.40;6.20;;;17.50;99.90;;;;;;5117093;28;20245;-47
2023/06/08 02:43:00;;;;;;;6.80;5.33;;;17.50;99.90;;;;;;5116926;28;20274;-48
2023/06/08 02:45:26;;;;;;;5.57;5.07;;;17.50;99.90;;;;;;5117203;28;20576;-47
2023/06/08 02:47:52;;;;;;;6.13;5.70;;;17.50;99.90;;;;;;5117178;28;20218;-48
2023/06/08 02:50:18;;;;;;;7.00;6.30;;;17.50;99.90;;;;;;5117262;28;20563;-49
2023/06/08 02:52:43;;;;;;;5.77;5.37;;;17.50;99.90;;;;;;5116269;28;20476;-48
2023/06/08 02:55:09;;;;;;;6.83;6.23;;;17.40;99.90;;;;;;5117237;28;20191;-48
2023/06/08 02:57:36;;;;;;;6.20;5.60;;;17.30;99.90;;;;;;5117425;28;20556;-45
2023/06/08 03:00:03;;;;;;;8.13;6.13;;;17.20;99.90;;;;;;5117426;28;20192;-48
2023/06/08 03:02:28;;;;;;;7.13;6.43;;;17.10;99.90;;;;;;5117306;28;20673;-46
2023/06/08 03:05:02;;;;;;;5.70;5.20;;;17.10;99.90;;;;;;5117035;28;20430;-46
2023/06/08 03:07:28;;;;;;;6.00;5.50;;;17.10;1.00;;;;;;5117153;28;20546;-48
2023/06/08 03:09:54;;;;;;;6.43;5.93;;;17.10;1.00;;;;;;5117372;28;20506;-47
2023/06/08 03:12:19;;;;;;;7.50;6.80;;;17.10;1.00;;;;;;5116472;28;20499;-46
2023/06/08 03:14:48;;;;;;;6.73;6.03;;;17.10;1.00;;;;;;5116694;28;20588;-48
2023/06/08 03:17:17;;;;;;;6.23;5.60;;;17.20;1.00;;;;;;5119134;28;20202;-46
2023/06/08 03:19:43;;;;;;;6.50;5.90;;;17.20;1.00;;;;;;5102231;28;20746;-47
2023/06/08 03:22:09;;;;;;;5.70;5.20;;;17.20;1.00;;;;;;5120092;28;20516;-49
2023/06/08 03:24:35;;;;;;;6.23;5.73;;;17.20;1.00;;;;;;5120317;28;20838;-48
2023/06/08 03:27:02;;;;;;;6.17;5.57;;;17.20;99.90;;;;;;5119913;28;20433;-47
2023/06/08 03:29:29;;;;;;;6.77;6.20;;;17.20;1.00;;;;;;5119117;28;20437;-47
2023/06/08 03:31:54;;;;;;;7.00;6.40;;;17.10;1.00;;;;;;5118837;28;20481;-48
2023/06/08 03:34:23;;;;;;;7.57;5.70;;;17.10;99.90;;;;;;5118810;28;20487;-47
2023/06/08 03:36:48;;;;;;;6.40;5.80;;;17.10;1.00;;;;;;5118419;28;20456;-47
2023/06/08 03:39:14;;;;;;;6.27;5.77;;;17.10;99.90;;;;;;5118602;28;20429;-46
2023/06/08 03:41:41;;;;;;;6.43;5.83;;;17.10;99.90;;;;;;5119216;28;20550;-47
2023/06/08 03:44:06;;;;;;;6.70;5.53;;;17.10;1.00;;;;;;5101779;28;20250;-47
2023/06/08 03:46:32;;;;;;;6.63;6.10;;;17.00;1.00;;;;;;5119774;28;20482;-46
2023/06/08 03:48:57;;;;;;;6.00;5.50;;;17.00;1.00;;;;;;5119305;28;20554;-46
2023/06/08 03:51:23;;;;;;;6.40;5.90;;;17.00;1.00;;;;;;5119707;28;20187;-46
2023/06/08 03:53:50;;;;;;;6.50;5.90;;;17.10;1.00;;;;;;5120209;28;20195;-46
2023/06/08 03:56:15;;;;;;;5.40;4.90;;;17.10;1.00;;;;;;5120333;28;20253;-46
2023/06/08 03:58:44;;;;;;;5.50;5.10;;;17.10;1.00;;;;;;5119571;28;20437;-46
2023/06/08 04:01:13;;;;;;;5.33;4.90;;;17.20;1.00;;;;;;5119998;28;20235;-53
2023/06/08 04:03:41;;;;;;;6.30;5.80;;;17.20;1.00;;;;;;5119174;28;20461;-47
2023/06/08 04:06:08;;;;;;;5.80;5.30;;;17.20;99.90;;;;;;5118940;28;20429;-46
2023/06/08 04:08:39;;;;;;;6.00;5.50;;;17.20;99.90;;;;;;5119435;28;20426;-46
2023/06/08 04:11:06;;;;;;;6.43;5.93;;;17.10;1.00;;;;;;5118984;28;20455;-47
2023/06/08 04:13:32;;;;;;;6.07;5.57;;;17.00;1.00;;;;;;5118243;28;20421;-46
2023/06/08 04:15:58;;;;;;;5.93;5.50;;;17.00;1.00;;;;;;5118862;28;20515;-46
2023/06/08 04:18:23;;;;;;;6.23;5.73;;;17.10;1.00;;;;;;5119122;28;20176;-49
2023/06/08 04:20:49;;;;;;;6.00;5.50;;;17.20;1.00;;;;;;5118171;28;20414;-50
2023/06/08 04:23:15;;;;;;;6.13;5.73;;;17.30;1.00;;;;;;5119760;28;20188;-47
2023/06/08 04:25:41;;;;;;;6.27;5.77;;;17.50;1.00;;;;;;5120125;28;20606;-48
2023/06/08 04:28:07;;;;;;;6.00;5.50;;;17.60;99.90;;;;;;5118832;28;20465;-46
2023/06/08 04:30:33;;;;;;;6.00;5.50;;;17.80;99.90;;;;;;5118498;28;20963;-49
2023/06/08 04:33:00;;;;;;;5.50;5.00;;;17.90;99.90;;;;;;5117825;28;20237;-47
2023/06/08 04:35:26;;;;;;;5.63;5.17;;;18.10;99.90;;;;;;5118634;28;20184;-46
2023/06/08 04:37:52;;;;;;;6.40;5.60;;;18.20;99.90;;;;;;5118308;28;20445;-47
2023/06/08 04:40:19;;;;;;;6.00;5.50;;;18.30;99.90;;;;;;5118031;28;20409;-47
2023/06/08 04:42:45;;;;;;;5.50;5.10;;;18.50;99.90;;;;;;5118560;28;20210;-48
2023/06/08 04:45:11;;;;;;;5.70;5.20;;;18.60;99.90;;;;;;5118537;28;20564;-47
2023/06/08 04:47:37;;;;;;;5.27;4.87;;;18.60;95.20;;;;;;5119453;28;20226;-47
2023/06/08 04:50:07;;;;;;;6.10;5.07;;;18.70;73.30;;;;;;5117838;28;20212;-50
2023/06/08 04:52:40;;;;;;;5.10;4.70;;;18.70;47.60;;;;;;5118785;28;20910;-46
2023/06/08 04:55:07;;;;;;;4.70;4.30;;;18.70;31.60;;;;;;5102204;28;20854;-47
2023/06/08 04:57:33;;;;;;;5.00;4.60;;;18.70;25.70;;;;;;5118440;28;20987;-46
2023/06/08 04:59:59;;;;;;;6.00;4.50;;;18.70;29.10;;;;;;5118073;28;20477;-47
2023/06/08 05:02:25;;;;;;;4.80;4.40;;;18.80;26.00;;;;;;5118477;28;20214;-47
2023/06/08 05:04:50;;;;;;;5.10;4.50;;;18.90;19.90;;;;;;5118106;28;20461;-51
2023/06/08 05:07:16;;;;;;;4.63;4.23;;;19.00;16.20;;;;;;5118164;28;20416;-49
2023/06/08 05:09:41;;;;;;;5.23;4.83;;;19.20;2.70;;;;;;5118403;28;20223;-46
2023/06/08 05:12:07;;;;;;;4.80;4.40;;;19.30;1.00;;;;;;5118103;28;20239;-46
2023/06/08 05:14:33;;;;;;;5.53;4.93;;;19.30;1.00;;;;;;5117739;28;20180;-49
2023/06/08 05:16:58;;;;;;;5.50;5.10;;;19.30;1.00;;;;;;5117237;28;20991;-50
2023/06/08 05:19:24;;;;;;;5.67;5.17;;;19.30;1.00;;;;;;5116713;28;20187;-47
2023/06/08 05:21:50;;;;;;;5.60;5.13;;;19.20;1.00;;;;;;5117621;28;20315;-48
2023/06/08 05:24:15;;;;;;;4.47;4.07;;;19.20;1.00;;;;;;5118436;28;20199;-47
2023/06/08 05:26:42;;;;;;;5.70;5.20;;;19.30;1.00;;;;;;5117653;28;20593;-50
2023/06/08 05:29:08;;;;;;;4.80;4.40;;;19.30;1.00;;;;;;5118148;28;20454;-49
2023/06/08 05:31:34;;;;;;;6.90;6.20;;;19.40;1.00;;;;;;5118040;28;20461;-48
2023/06/08 05:33:59;;;;;;;5.50;5.10;;;19.50;1.00;;;;;;5117072;28;20783;-48
2023/06/08 05:36:25;;;;;;;8.07;4.63;;;19.50;1.00;;;;;;5082324;28;20544;-49
2023/06/08 05:38:51;;;;;;;5.30;4.90;;;19.40;1.00;;;;;;5117200;28;20279;-49
2023/06/08 05:41:16;;;;;;;4.57;4.13;;;19.40;1.00;;;;;;5117902;28;20573;-45
2023/06/08 05:43:42;;;;;;;5.90;5.23;;;19.40;5.00;;;;;;5118539;28;20199;-48
2023/06/08 05:46:08;;;;;;;5.53;5.13;;;19.60;1.00;;;;;;5118513;28;20246;-48
2023/06/08 05:48:33;;;;;;;5.07;4.67;;;19.60;1.00;;;;;;5117806;28;20426;-51
2023/06/08 05:50:59;;;;;;;4.67;4.37;;;19.80;1.00;;;;;;5117614;28;20202;-49
2023/06/08 05:53:25;;;;;;;4.60;4.20;;;20.00;1.00;;;;;;5117484;28;20204;-51
2023/06/08 05:55:51;;;;;;;5.53;4.13;;;20.20;1.00;;;;;;5116726;28;20429;-47
2023/06/08 05:58:17;;;;;;;4.33;4.03;;;20.50;1.00;;;;;;5116708;28;20184;-50
2023/06/08 06:00:42;;;;;;;4.97;4.57;;;20.70;1.00;;;;;;5117108;28;20266;-51
2023/06/08 06:03:08;;;;;;;4.60;4.23;;;20.90;1.00;;;;;;5117248;28;20870;-50
2023/06/08 06:05:33;;;;;;;4.30;4.00;;;21.10;1.00;;;;;;5117620;28;20263;-50
2023/06/08 06:08:04;;;;;;;5.70;5.30;;;21.20;1.00;;;;;;5117960;28;20187;-48
2023/06/08 06:10:30;;;;;;;4.67;4.27;;;21.30;1.00;;;;;;5117337;28;20180;-49
2023/06/08 06:12:56;;;;;;;4.83;4.50;;;21.30;1.00;;;;;;5117189;28;20526;-46
2023/06/08 06:15:21;;;;;;;4.37;4.00;;;21.40;1.00;;;;;;5099415;28;20183;-49
2023/06/08 06:17:47;;;;;;;4.70;4.40;;;21.60;1.00;;;;;;5118132;28;20192;-48
2023/06/08 06:20:15;;;;;;;5.57;4.97;;;21.70;1.00;;;;;;5117227;28;20204;-49
2023/06/08 06:22:41;;;;;;;4.93;4.53;;;21.90;1.00;;;;;;5117234;28;20436;-49
2023/06/08 06:25:07;;;;;;;5.37;4.93;;;22.00;1.00;;;;;;5118272;28;20408;-50
2023/06/08 06:27:32;;;;;;;4.77;4.30;;;22.10;1.00;;;;;;5117805;28;20195;-53
2023/06/08 06:29:58;;;;;;;4.57;4.17;;;22.40;1.00;;;;;;5116196;28;20870;-48
2023/06/08 06:32:23;;;;;;;5.57;5.07;;;22.50;1.00;;;;;;5115445;28;20586;-49
2023/06/08 06:34:49;;;;;;;4.60;4.20;;;22.50;1.00;;;;;;5116123;28;20192;-50
2023/06/08 06:37:15;;;;;;;4.43;4.10;;;22.60;1.00;;;;;;5116779;28;20180;-50
2023/06/08 06:39:40;;;;;;;4.30;4.00;;;22.60;1.00;;;;;;5116592;28;20199;-49
2023/06/08 06:42:06;;;;;;;4.23;3.90;;;22.70;1.00;;;;;;5117370;28;20558;-48
2023/06/08 06:44:32;;;;;;;4.50;4.10;;;22.80;1.00;;;;;;5116843;28;20433;-52
2023/06/08 06:46:58;;;;;;;4.50;4.10;;;22.90;1.00;;;;;;5118062;28;20277;-50
2023/06/08 06:49:23;;;;;;;4.40;4.10;;;23.00;1.00;;;;;;5115765;28;20183;-51
2023/06/08 06:51:49;;;;;;;4.43;4.03;;;23.10;1.00;;;;;;5113586;28;20609;-49
2023/06/08 06:54:14;;;;;;;5.13;4.73;;;23.10;1.00;;;;;;5114826;28;20658;-49
2023/06/08 06:56:40;;;;;;;4.97;4.57;;;23.10;1.00;;;;;;5114110;28;20285;-47
2023/06/08 06:59:05;;;;;;;5.23;4.73;;;23.20;1.00;;;;;;5116119;28;20283;-50
2023/06/08 07:01:35;;;;;;;5.03;4.63;;;23.40;1.00;;;;;;5116695;28;20183;-58
2023/06/08 07:04:04;;;;;;;5.00;4.50;;;23.50;1.00;;;;;;5117144;28;20191;-50
2023/06/08 07:06:31;;;;;;;4.93;4.60;;;23.70;1.00;;;;;;5115315;28;20421;-46
2023/06/08 07:08:56;;;;;;;5.00;4.50;;;23.90;1.00;;;;;;5116532;28;20445;-48
2023/06/08 07:11:22;;;;;;;4.73;4.33;;;24.10;1.00;;;;;;5117147;28;20513;-49
2023/06/08 07:13:47;;;;;;;4.90;4.50;;;24.30;1.00;;;;;;5117487;28;20192;-48
2023/06/08 07:16:13;;;;;;;4.90;4.10;;;24.50;1.00;;;;;;5117240;28;20184;-50
2023/06/08 07:18:39;;;;;;;5.50;5.10;;;24.70;1.00;;;;;;5116195;28;20253;-49
2023/06/08 07:21:05;;;;;;;4.63;4.23;;;24.90;1.00;;;;;;5117100;28;20244;-52
2023/06/08 07:23:30;;;;;;;4.77;4.27;;;24.80;1.00;;;;;;5117194;28;20421;-49
2023/06/08 07:25:56;;;;;;;4.80;4.47;;;24.80;1.00;;;;;;5117160;28;20248;-50
2023/06/08 07:28:21;;;;;;;5.33;4.27;;;24.90;1.00;;;;;;5116791;28;20195;-50
2023/06/08 07:30:47;;;;;;;4.30;3.90;;;24.90;1.00;;;;;;5116171;28;20279;-48
2023/06/08 07:33:15;;;;;;;4.23;3.93;;;24.80;1.00;;;;;;5116165;28;20215;-52
2023/06/08 07:35:41;;;;;;;4.53;4.13;;;24.70;1.00;;;;;;5081277;28;20473;-49
2023/06/08 07:38:07;;;;;;;4.93;4.53;;;24.70;1.00;;;;;;5115697;28;20425;-49
2023/06/08 07:40:32;;;;;;;4.80;4.40;;;24.70;1.00;;;;;;5116043;28;20188;-49
2023/06/08 07:42:58;;;;;;;5.23;4.73;;;24.80;1.00;;;;;;5116455;28;20711;-49
2023/06/08 07:45:27;;;;;;;4.73;4.33;;;24.90;1.00;;;;;;5116548;28;20243;-49
2023/06/08 07:47:52;;;;;;;4.60;4.30;;;25.00;1.00;;;;;;5116684;28;20588;-47
2023/06/08 07:50:18;;;;;;;5.47;5.00;;;25.10;1.00;;;;;;5116914;28;20501;-48
2023/06/08 07:52:44;;;;;;;5.40;5.00;;;25.20;1.00;;;;;;5116649;28;20473;-49
2023/06/08 07:55:09;;;;;;;6.20;5.70;;;25.20;1.00;;;;;;5116289;28;20271;-48
2023/06/08 07:57:36;;;;;;;6.90;6.30;;;25.10;1.00;;;;;;5115758;28;20237;-49
2023/06/08 08:00:04;;;;;;;5.80;5.30;;;25.00;1.00;;;;;;5115901;28;20187;-48
2023/06/08 08:02:30;;;;;;;6.20;5.70;;;24.90;1.00;;;;;;5118119;28;20486;-48
2023/06/08 08:04:56;;;;;;;6.50;6.00;;;25.00;1.00;;;;;;5119237;28;20473;-47
2023/06/08 08:07:21;;;;;;;6.17;5.73;;;24.90;1.00;;;;;;5119063;28;20448;-48
2023/06/08 08:09:47;;;;;;;6.37;5.77;;;25.10;1.00;;;;;;5119923;28;20194;-48
2023/06/08 08:12:12;;;;;;;6.47;5.97;;;25.30;1.00;;;;;;5119453;28;20216;-48
2023/06/08 08:14:41;;;;;;;5.57;5.07;;;25.50;1.00;;;;;;5117259;28;20594;-51
2023/06/08 08:17:06;;;;;;;5.97;5.47;;;25.70;1.00;;;;;;5117921;28;20180;-50
2023/06/08 08:19:44;;;;;;;5.90;5.40;;;25.70;1.00;;;;;;5117361;28;20424;-47
2023/06/08 08:22:10;;;;;;;6.17;5.67;;;25.70;1.00;;;;;;5118360;28;20228;-49
2023/06/08 08:24:38;;;;;;;6.00;5.50;;;25.80;1.00;;;;;;5118307;28;20432;-48
2023/06/08 08:27:04;;;;;;;5.90;5.50;;;25.70;1.00;;;;;;5118113;28;20751;-48
2023/06/08 08:29:30;;;;;;;6.40;5.90;;;25.60;1.00;;;;;;5118098;28;20440;-48
2023/06/08 08:31:56;;;;;;;5.53;5.03;;;25.60;1.00;;;;;;5099443;28;20473;-48
2023/06/08 08:34:22;;;;;;;5.97;5.57;;;25.90;1.00;;;;;;5118475;28;20179;-48
2023/06/08 08:36:47;;;;;;;5.80;5.30;;;26.20;1.00;;;;;;5100481;28;20413;-48
2023/06/08 08:39:14;;;;;;;6.40;5.90;;;26.60;1.00;;;;;;5117667;28;20283;-49
2023/06/08 08:41:44;;;;;;;5.93;5.50;;;27.00;1.00;;;;;;5100132;28;20207;-49
2023/06/08 08:44:17;;;;;;;6.70;6.10;;;27.40;1.00;;;;;;5099295;28;20440;-47
2023/06/08 08:46:43;;;;;;;7.97;7.37;;;27.70;1.00;;;;;;5099473;28;20766;-49
2023/06/08 08:49:15;;;;;;;6.90;6.33;;;27.70;1.00;;;;;;5117621;28;20410;-52
2023/06/08 08:51:43;;;;;;;7.43;6.83;;;27.70;1.00;;;;;;5099842;28;20561;-54
2023/06/08 08:54:12;;;;;;;6.60;5.80;;;27.90;1.00;;;;;;5099796;28;20433;-51
2023/06/08 08:56:38;;;;;;;7.40;6.80;;;27.90;1.00;;;;;;5118589;28;20823;-51
2023/06/08 08:59:04;;;;;;;7.00;6.40;;;28.10;1.00;;;;;;5118380;28;20974;-52
2023/06/08 09:01:32;;;;;;;7.60;6.80;;;28.30;1.00;;;;;;5118826;28;20683;-49
2023/06/08 09:03:58;;;;;;;7.93;7.33;;;28.40;1.00;;;;;;5117724;28;20508;-51
2023/06/08 09:06:27;;;;;;;7.17;6.67;;;28.50;1.00;;;;;;5117047;28;20450;-51
2023/06/08 09:08:54;;;;;;;6.40;5.90;;;28.70;1.00;;;;;;5099837;28;20508;-51
2023/06/08 09:11:20;;;;;;;6.97;6.47;;;29.00;1.00;;;;;;5117375;28;20521;-53
2023/06/08 09:13:45;;;;;;;7.53;6.80;;;29.20;1.00;;;;;;5115610;28;20512;-51
2023/06/08 09:16:14;;;;;;;6.90;6.43;;;29.40;1.00;;;;;;5134256;27;20212;-50
2023/06/08 09:18:41;;;;;;;6.17;5.67;;;29.50;1.00;;;;;;5137236;27;20193;-54
2023/06/08 09:21:29;;;;;;;6.60;6.10;;;29.70;1.00;;;;;;5136037;27;20436;-51
2023/06/08 09:24:11;;;;;;;7.20;6.60;;;29.90;1.00;;;;;;5137591;27;20492;-46
2023/06/08 09:26:38;;;;;;;6.23;5.73;;;30.00;1.00;;;;;;5137464;27;20427;-52
2023/06/08 09:29:04;;;;;;;7.00;6.40;;;30.20;1.00;;;;;;5136746;27;20417;-52
2023/06/08 09:31:30;;;;;;;7.83;7.13;;;30.40;1.00;;;;;;5137427;27;20417;-51
2023/06/08 09:34:07;;;;;;;6.90;6.40;;;30.50;1.00;;;;;;5138400;27;20509;-52
2023/06/08 09:36:39;;;;;;;6.37;5.83;;;30.80;1.00;;;;;;5138275;27;20416;-52
2023/06/08 09:39:07;;;;;;;6.53;6.03;;;30.80;1.00;;;;;;5119336;27;21058;-52
2023/06/08 09:41:39;;;;;;;6.60;6.10;;;30.60;1.00;;;;;;5137758;27;20395;-52
2023/06/08 09:44:18;;;;;;;6.27;5.87;;;30.30;1.00;;;;;;5138019;27;20425;-51
2023/06/08 09:46:47;;;;;;;6.93;6.37;;;30.10;1.00;;;;;;5120012;27;20451;-50
2023/06/08 09:49:14;;;;;;;6.50;6.00;;;30.30;1.00;;;;;;5138451;27;20383;-52
2023/06/08 09:51:46;;;;;;;6.70;6.20;;;30.30;1.00;;;;;;5119686;27;20436;-55
2023/06/08 09:54:15;;;;;;;6.00;5.60;;;30.20;1.00;;;;;;5137824;27;20967;-52
2023/06/08 09:56:45;;;;;;;6.40;5.90;;;30.30;1.00;;;;;;5118450;27;20550;-52
2023/06/08 09:59:15;;;;;;;7.13;6.60;;;30.40;1.00;;;;;;5118184;27;20485;-54
2023/06/08 10:01:57;;;;;;;6.70;6.20;;;30.60;1.00;;;;;;5136843;27;20395;-54
2023/06/08 10:04:31;;;;;;;6.60;6.10;;;30.70;1.00;;;;;;5138612;27;20439;-50
2023/06/08 10:07:01;;;;;;;6.53;6.00;;;31.30;1.00;;;;;;5137965;27;20451;-51
2023/06/08 10:09:28;;;;;;;6.70;6.20;;;31.50;1.00;;;;;;5118734;27;20429;-54
2023/06/08 10:11:57;;;;;;;6.97;6.47;;;31.90;1.00;;;;;;5137440;27;20564;-52
2023/06/08 10:14:27;;;;;;;5.80;5.40;;;32.30;1.00;;;;;;5138251;27;20463;-49
2023/06/08 10:16:54;;;;;;;7.40;6.80;;;32.90;1.00;;;;;;5120827;27;20423;-49
2023/06/08 10:19:20;;;;;;;6.20;5.70;;;32.90;1.00;;;;;;5119064;27;20421;-51
2023/06/08 10:21:48;;;;;;;6.30;5.90;;;32.90;1.00;;;;;;5100915;27;20435;-51
2023/06/08 10:24:14;;;;;;;6.10;5.70;;;33.00;1.00;;;;;;5099425;28;20509;-51
2023/06/08 10:26:40;;;;;;;6.53;6.10;;;33.10;1.00;;;;;;5137298;27;20413;-52
2023/06/08 10:29:10;;;;;;;7.00;6.37;;;33.10;1.00;;;;;;5136772;27;20409;-54
2023/06/08 10:31:40;;;;;;;7.00;6.30;;;33.00;1.00;;;;;;5137227;27;20187;-49
2023/06/08 10:34:14;;;;;;;6.63;6.13;;;33.30;1.00;;;;;;5118576;27;20493;-51
2023/06/08 10:36:42;;;;;;;7.37;6.87;;;33.40;1.00;;;;;;5138146;27;20394;-47
2023/06/08 10:39:15;;;;;;;7.03;6.53;;;33.40;1.00;;;;;;5118538;27;20537;-48
2023/06/08 10:41:44;;;;;;;6.60;6.10;;;33.50;1.00;;;;;;5135142;27;20443;-49
2023/06/08 10:44:41;;;;;;;6.60;6.10;;;33.70;1.00;;;;;;5134648;27;20811;-50
2023/06/08 10:47:08;;;;;;;6.50;6.10;;;33.80;1.00;;;;;;5114450;27;20441;-51
2023/06/08 10:49:35;;;;;;;6.50;6.00;;;34.10;1.00;;;;;;5136096;27;20673;-51
2023/06/08 10:52:03;;;;;;;6.00;5.60;;;34.40;1.00;;;;;;5116863;27;20454;-51
2023/06/08 10:54:29;;;;;;;6.37;5.90;;;34.70;1.00;;;;;;5135615;27;20820;-53
2023/06/08 10:56:57;;;;;;;6.97;6.47;;;35.00;1.00;;;;;;5136372;27;20428;-52
2023/06/08 10:59:34;;;;;;;6.30;5.90;;;35.30;1.00;;;;;;5117465;28;20175;-54
2023/06/08 11:02:08;;;;;;;6.53;5.93;;;35.00;1.00;;;;;;5118734;27;20529;-49
2023/06/08 11:04:34;;;;;;;6.33;5.90;;;34.70;1.00;;;;;;5137614;27;20424;-49
2023/06/08 11:07:01;;;;;;;7.00;6.50;;;34.10;1.00;;;;;;5136238;28;20525;-51
2023/06/08 11:09:37;;;;;;;6.50;5.90;;;33.20;1.00;;;;;;5135747;28;20455;-52
2023/06/08 11:12:03;;;;;;;6.83;6.37;;;32.60;1.00;;;;;;5117951;28;20479;-50
2023/06/08 11:14:29;;;;;;;7.60;7.07;;;32.50;1.00;;;;;;5136010;28;20380;-51
2023/06/08 11:16:56;;;;;;;7.30;6.80;;;32.90;1.00;;;;;;5135582;28;20804;-54
2023/06/08 11:19:24;;;;;;;7.03;6.43;;;33.40;1.00;;;;;;5134869;28;20168;-53
2023/06/08 11:21:53;;;;;;;6.77;6.27;;;33.80;1.00;;;;;;5134201;28;20845;-51
2023/06/08 11:24:27;;;;;;;7.63;7.03;;;33.60;1.00;;;;;;5133128;28;20496;-51
2023/06/08 11:26:58;;;;;;;7.87;7.27;;;32.90;1.00;;;;;;5134512;28;20427;-50
2023/06/08 11:29:24;;;;;;;7.03;6.43;;;32.40;1.00;;;;;;5134486;28;20445;-49
2023/06/08 11:31:50;;;;;;;7.20;6.70;;;32.10;1.00;;;;;;5133428;28;20431;-49
2023/06/08 11:34:17;;;;;;;6.60;6.20;;;31.90;1.00;;;;;;5133528;28;20408;-53
2023/06/08 11:36:43;;;;;;;6.53;6.03;;;31.70;1.00;;;;;;5134712;27;20188;-50
2023/06/08 11:39:12;;;;;;;7.27;6.77;;;31.40;1.00;;;;;;5131157;27;20406;-54
2023/06/08 11:41:46;;;;;;;6.80;6.30;;;31.10;1.00;;;;;;5138051;27;20786;-51
2023/06/08 11:44:14;;;;;;;6.47;5.97;;;30.70;1.00;;;;;;5121434;27;20404;-55
2023/06/08 11:46:40;;;;;;;7.90;7.30;;;30.30;1.00;;;;;;5139618;27;20535;-54
2023/06/08 11:49:09;;;;;;;6.63;6.13;;;29.80;1.00;;;;;;5139931;27;20437;-52
2023/06/08 11:51:47;;;;;;;6.90;6.40;;;29.50;1.00;;;;;;5140871;27;20183;-50
2023/06/08 11:54:13;;;;;;;7.23;6.67;;;29.20;1.00;;;;;;5132387;27;20504;-50
2023/06/08 11:56:41;;;;;;;8.63;7.93;;;28.70;1.00;;;;;;5137735;27;20671;-50
2023/06/08 11:59:07;;;;;;;8.87;8.27;;;28.20;1.00;;;;;;5139338;27;20405;-53
2023/06/08 12:01:32;;;;;;;8.03;7.43;;;27.50;1.00;;;;;;5140141;27;20424;-52
2023/06/08 12:03:58;;;;;;;7.93;7.23;;;26.90;1.00;;;;;;5121534;27;20175;-52
2023/06/08 12:06:29;;;;;;;7.30;6.70;;;25.90;1.00;;;;;;5138745;27;20266;-50
2023/06/08 12:08:55;;;;;;;7.80;7.20;;;25.40;1.00;;;;;;5134967;27;20180;-52
2023/06/08 12:11:21;;;;;;;8.00;7.30;;;25.00;1.00;;;;;;5135625;27;20407;-45
2023/06/08 12:13:47;;;;;;;7.90;7.20;;;24.50;1.00;;;;;;5138213;27;21221;-51
2023/06/08 12:16:13;;;;;;;8.47;7.60;;;24.10;1.00;;;;;;5138772;27;20740;-45
2023/06/08 12:18:43;;;;;;;10.40;7.50;;;23.80;1.00;;;;;;5139089;27;20193;-45
2023/06/08 12:21:10;;;;;;;8.80;7.90;;;23.40;1.00;;;;;;5139216;27;20423;-48
2023/06/08 12:23:36;;;;;;;8.17;7.57;;;23.20;1.00;;;;;;5139006;27;20401;-44
2023/06/08 12:26:02;;;;;;;8.30;7.60;;;23.10;1.00;;;;;;5137588;27;20825;-49
2023/06/08 12:28:27;;;;;;;8.80;8.00;;;23.00;1.00;;;;;;5139312;27;20217;-45
2023/06/08 12:30:57;;;;;;;8.20;7.60;;;23.00;1.00;;;;;;5140329;27;20456;-46
2023/06/08 12:33:24;;;;;;;8.70;7.90;;;22.80;1.00;;;;;;5122334;27;20620;-48
2023/06/08 12:35:54;;;;;;;8.40;7.60;;;22.60;1.00;;;;;;5120795;27;20917;-47
2023/06/08 12:38:20;;;;;;;8.10;7.40;;;22.50;1.00;;;;;;5139140;27;20702;-46
2023/06/08 12:40:48;;;;;;;9.13;7.40;;;22.40;1.00;;;;;;5139811;27;20405;-47
2023/06/08 12:43:16;;;;;;;8.13;7.43;;;22.10;1.00;;;;;;5121055;27;20447;-50
2023/06/08 12:45:42;;;;;;;8.43;7.63;;;22.30;1.00;;;;;;5102476;27;20456;-49
2023/06/08 12:48:07;;;;;;;9.20;8.37;;;22.50;1.00;;;;;;5136465;27;20437;-50
2023/06/08 12:50:35;;;;;;;8.30;7.00;;;22.80;1.00;;;;;;5135797;27;20709;-45
2023/06/08 12:53:01;;;;;;;8.90;8.00;;;23.10;1.00;;;;;;5100843;27;20541;-45
2023/06/08 12:55:26;;;;;;;8.27;7.43;;;23.40;1.00;;;;;;5136156;27;20436;-49
2023/06/08 12:57:52;;;;;;;7.60;6.90;;;23.70;1.00;;;;;;5134636;27;20428;-45